Time;durP1;ratioP1;P1;durP2;ratioP2;P2;SDS_P1;SDS_P2;PMS_P1;PMS_P2;Temp;Humidity;BMP_temperature;BMP_pressure;BME280_temperature;BME280_humidity;BME280_pressure;Samples;Min_cycle;Max_cycle;Signal;HPM_P1;HPM_P2
2020/12/01 00:02:08;;;;;;;3.05;1.05;;;;;;;-149.78;100.00;50537.94;4751921;30;20072;-64
2020/12/01 00:04:34;;;;;;;2.33;0.77;;;;;;;-149.78;100.00;50522.28;4752565;30;20111;-64
2020/12/01 00:07:00;;;;;;;1.95;0.65;;;;;;;-149.78;100.00;50526.22;4752356;30;20052;-64
2020/12/01 00:09:25;;;;;;;3.10;0.65;;;;;;;-149.78;100.00;50541.84;4752374;30;20051;-64
2020/12/01 00:11:51;;;;;;;1.38;0.50;;;;;;;-149.78;100.00;50514.47;4752449;30;20044;-64
2020/12/01 00:14:17;;;;;;;3.45;0.73;;;;;;;-149.78;100.00;50516.44;4752287;30;20040;-64
2020/12/01 00:16:45;;;;;;;1.13;0.50;;;;;;;-149.78;100.00;50537.94;4751208;30;20127;-64
2020/12/01 00:19:11;;;;;;;2.35;0.50;;;;;;;-149.78;100.00;50516.44;4752219;30;20036;-63
2020/12/01 00:21:36;;;;;;;3.33;0.93;;;;;;;-149.78;100.00;50522.28;4752517;30;20036;-64
2020/12/01 00:24:03;;;;;;;2.10;0.63;;;;;;;-149.78;100.00;50537.94;4754331;30;20398;-64
2020/12/01 00:26:29;;;;;;;2.33;0.70;;;;;;;-149.78;100.00;50528.16;4755273;30;20107;-64
2020/12/01 00:28:54;;;;;;;4.40;0.82;;;;;;;-149.78;100.00;50530.13;4755425;30;20452;-64
2020/12/01 00:31:21;;;;;;;4.47;0.93;;;;;;;-149.78;100.00;50549.69;4755411;30;20038;-64
2020/12/01 00:33:47;;;;;;;2.67;0.60;;;;;;;-149.78;100.00;50537.94;4755647;30;20048;-64
2020/12/01 00:36:13;;;;;;;1.35;0.50;;;;;;;-149.78;100.00;50559.47;4755286;30;20052;-64
2020/12/01 00:38:40;;;;;;;1.60;0.43;;;;;;;-149.78;100.00;50561.41;4755382;30;20038;-64
2020/12/01 00:41:06;;;;;;;5.25;0.88;;;;;;;-149.78;100.00;50537.94;4755516;30;20048;-63
2020/12/01 00:43:31;;;;;;;2.83;0.50;;;;;;;-149.78;100.00;50518.38;4755200;30;20097;-63
2020/12/01 00:45:57;;;;;;;2.40;1.02;;;;;;;-149.78;100.00;50557.50;4755284;30;20505;-64
2020/12/01 00:48:23;;;;;;;3.20;0.70;;;;;;;-149.78;100.00;50522.28;4755139;30;20043;-64
2020/12/01 00:50:48;;;;;;;3.30;0.60;;;;;;;-149.78;100.00;50549.69;4755332;30;20040;-63
2020/12/01 00:53:14;;;;;;;4.30;0.57;;;;;;;-149.78;100.00;50553.59;4754936;30;20051;-64
2020/12/01 00:55:40;;;;;;;7.25;0.93;;;;;;;-149.78;100.00;50518.38;4755080;30;20044;-64
2020/12/01 00:58:06;;;;;;;5.57;0.95;;;;;;;-149.78;100.00;50530.13;4754955;30;20082;-64
2020/12/01 01:00:32;;;;;;;4.85;1.20;;;;;;;-149.78;100.00;50534.03;4745548;30;20044;-63
2020/12/01 01:02:58;;;;;;;8.05;0.95;;;;;;;-149.78;100.00;50539.91;4740546;30;20060;-64
2020/12/01 01:05:24;;;;;;;3.35;0.80;;;;;;;-149.78;100.00;50545.75;4754813;30;20113;-64
2020/12/01 01:07:50;;;;;;;3.22;0.70;;;;;;;-149.78;100.00;50520.34;4755008;30;20067;-63
2020/12/01 01:10:21;;;;;;;1.98;0.77;;;;;;;-149.78;100.00;50545.75;4754904;30;20036;-63
2020/12/01 01:12:47;;;;;;;1.80;0.82;;;;;;;-149.78;100.00;50580.97;4738660;30;20115;-64
2020/12/01 01:15:14;;;;;;;1.45;0.40;;;;;;;-149.78;100.00;50537.94;4754711;30;20101;-63
2020/12/01 01:17:39;;;;;;;2.10;0.60;;;;;;;-149.78;100.00;50553.59;4754633;30;20433;-63
2020/12/01 01:20:07;;;;;;;2.10;0.60;;;;;;;-149.78;100.00;50534.03;4753994;30;20041;-63
2020/12/01 01:22:33;;;;;;;1.77;0.95;;;;;;;-149.78;100.00;50563.38;4743738;30;20052;-63
2020/12/01 01:24:59;;;;;;;0.50;0.45;;;;;;;-149.78;100.00;50579.00;4738819;30;20045;-64
2020/12/01 01:27:24;;;;;;;3.53;0.57;;;;;;;-149.78;100.00;50535.97;4737987;30;20057;-64
2020/12/01 01:29:50;;;;;;;1.63;0.63;;;;;;;-149.78;100.00;50549.69;4739384;30;20056;-63
2020/12/01 01:32:15;;;;;;;0.40;0.40;;;;;;;-149.78;100.00;50565.31;4738109;30;20359;-63
2020/12/01 01:34:41;;;;;;;4.57;0.70;;;;;;;-149.78;100.00;50532.06;4739232;30;20099;-63
2020/12/01 01:37:07;;;;;;;1.80;0.55;;;;;;;-149.78;100.00;50571.19;4738320;30;20118;-63
2020/12/01 01:39:32;;;;;;;1.23;0.80;;;;;;;-149.78;100.00;50520.34;4739077;30;20122;-63
2020/12/01 01:41:58;;;;;;;1.20;0.63;;;;;;;-149.78;100.00;50534.03;4738459;30;20076;-63
2020/12/01 01:44:27;;;;;;;2.28;0.70;;;;;;;-149.78;100.00;50553.59;4738250;30;20040;-63
2020/12/01 01:47:23;;;;;;;1.83;0.65;;;;;;;-149.78;100.00;50549.69;4739482;30;20033;-63
2020/12/01 01:50:09;;;;;;;2.40;0.60;;;;;;;-149.78;100.00;50569.22;4739318;30;20048;-63
2020/12/01 01:52:38;;;;;;;3.55;0.80;;;;;;;-149.78;100.00;50506.66;4737987;30;20039;-63
2020/12/01 01:55:17;;;;;;;1.85;0.90;;;;;;;-149.78;100.00;50577.06;4739323;30;20086;-63
2020/12/01 01:57:46;;;;;;;1.15;0.68;;;;;;;-149.78;100.00;50545.75;4737842;30;20032;-63
2020/12/01 02:00:52;;;;;;;1.63;0.73;;;;;;;-149.78;100.00;50537.94;4739010;30;20067;-63
2020/12/01 02:03:45;;;;;;;0.80;0.50;;;;;;;-149.78;100.00;50534.03;4737816;30;20061;-63
2020/12/01 02:06:27;;;;;;;4.55;0.60;;;;;;;-149.78;100.00;50547.72;4737446;30;20056;-63
2020/12/01 02:08:58;;;;;;;3.03;0.75;;;;;;;-149.78;100.00;50553.59;4750344;30;20119;-63
2020/12/01 02:11:26;;;;;;;2.40;0.60;;;;;;;-149.78;100.00;50579.00;4738388;30;20037;-63
2020/12/01 02:14:10;;;;;;;1.05;0.50;;;;;;;-149.78;100.00;50565.31;4754057;30;20078;-63
2020/12/01 02:16:39;;;;;;;1.38;0.57;;;;;;;-149.78;100.00;50541.84;4753818;30;20044;-63
2020/12/01 02:19:07;;;;;;;3.90;1.20;;;;;;;-149.78;100.00;50541.84;4753741;30;20044;-63
2020/12/01 02:21:41;;;;;;;2.50;0.60;;;;;;;-149.78;100.00;50553.59;4753622;30;20363;-63
2020/12/01 02:24:10;;;;;;;2.55;0.35;;;;;;;-149.78;100.00;50565.31;4753492;30;20087;-63
2020/12/01 02:26:36;;;;;;;4.20;0.77;;;;;;;-149.78;100.00;50530.13;4753480;30;20043;-63
2020/12/01 02:29:06;;;;;;;3.40;0.60;;;;;;;-149.78;100.00;50526.22;4753678;30;20036;-63
2020/12/01 02:31:32;;;;;;;0.60;0.57;;;;;;;-149.78;100.00;50545.75;4737611;30;20097;-63
2020/12/01 02:33:58;;;;;;;2.78;0.63;;;;;;;-149.78;100.00;50561.41;4753263;30;20505;-63
2020/12/01 02:36:24;;;;;;;1.95;0.65;;;;;;;-149.78;100.00;50537.94;4753175;30;20028;-63
2020/12/01 02:38:50;;;;;;;4.75;0.75;;;;;;;-149.78;100.00;50534.03;4753361;30;20378;-63
2020/12/01 02:41:15;;;;;;;2.38;0.43;;;;;;;-149.78;100.00;50543.81;4753262;30;20406;-63
2020/12/01 02:43:41;;;;;;;1.60;0.65;;;;;;;-149.78;100.00;50545.75;4753614;30;20496;-63
2020/12/01 02:46:07;;;;;;;2.25;0.80;;;;;;;-149.78;100.00;50524.25;4752593;30;20044;-63
2020/12/01 02:48:32;;;;;;;1.48;0.50;;;;;;;-149.78;100.00;50551.63;4753252;30;20111;-63
2020/12/01 02:50:58;;;;;;;2.20;0.60;;;;;;;-149.78;100.00;50530.13;4753324;30;20040;-63
2020/12/01 02:53:23;;;;;;;1.08;0.50;;;;;;;-149.78;100.00;50577.06;4753028;30;20040;-63
2020/12/01 02:55:49;;;;;;;2.83;0.50;;;;;;;-149.78;100.00;50537.94;4753370;30;20048;-63
2020/12/01 02:58:14;;;;;;;4.05;0.70;;;;;;;-149.78;100.00;50565.31;4752803;30;20048;-63
2020/12/01 03:00:40;;;;;;;0.82;0.40;;;;;;;-149.78;100.00;50557.50;4753157;30;20036;-63
2020/12/01 03:03:05;;;;;;;1.48;0.73;;;;;;;-149.78;100.00;50481.22;4752886;30;20139;-63
2020/12/01 03:05:31;;;;;;;3.85;0.70;;;;;;;-149.78;100.00;50545.75;4752980;30;20040;-63
2020/12/01 03:07:56;;;;;;;2.33;0.60;;;;;;;-149.78;100.00;50545.75;4752872;30;20103;-63
2020/12/01 03:10:22;;;;;;;1.77;0.70;;;;;;;-149.78;100.00;50545.75;4753077;30;20486;-63
2020/12/01 03:12:48;;;;;;;2.63;0.63;;;;;;;-149.78;100.00;50532.06;4752728;30;20036;-63
2020/12/01 03:15:14;;;;;;;3.72;0.55;;;;;;;-149.78;100.00;50534.03;4752934;30;20486;-63
2020/12/01 03:17:41;;;;;;;2.47;0.57;;;;;;;-149.78;100.00;50573.16;4752710;30;20115;-63
2020/12/01 03:20:06;;;;;;;2.95;0.80;;;;;;;-149.78;100.00;50545.75;4752759;30;20044;-63
2020/12/01 03:22:32;;;;;;;4.32;0.60;;;;;;;-149.78;100.00;50537.94;4752674;30;20351;-63
2020/12/01 03:24:58;;;;;;;5.13;0.63;;;;;;;-149.78;100.00;50510.56;4752942;30;20130;-63
2020/12/01 03:27:23;;;;;;;0.95;0.40;;;;;;;-149.78;100.00;50553.59;4751683;30;20387;-65
2020/12/01 03:29:49;;;;;;;2.03;0.70;;;;;;;-149.78;100.00;50551.63;4736844;30;20144;-63
2020/12/01 03:32:14;;;;;;;1.23;0.60;;;;;;;-149.78;100.00;50559.47;4752990;30;20059;-63
2020/12/01 03:34:40;;;;;;;0.80;0.50;;;;;;;-149.78;100.00;50510.56;4753051;30;20044;-63
2020/12/01 03:37:05;;;;;;;1.08;0.60;;;;;;;-149.78;100.00;50565.31;4752711;30;20405;-63
2020/12/01 03:39:31;;;;;;;0.95;0.30;;;;;;;-149.78;100.00;50541.84;4752498;30;20097;-64
2020/12/01 03:41:56;;;;;;;4.40;0.70;;;;;;;-149.78;100.00;50532.06;4752486;30;20398;-63
2020/12/01 03:44:22;;;;;;;1.73;0.55;;;;;;;-149.78;100.00;50559.47;4752705;30;20405;-63
2020/12/01 03:46:48;;;;;;;6.25;0.55;;;;;;;-149.78;100.00;50577.06;4752427;30;20048;-63
2020/12/01 03:49:13;;;;;;;0.80;0.50;;;;;;;-149.78;100.00;50557.50;4752686;30;20051;-63
2020/12/01 03:51:39;;;;;;;4.97;0.40;;;;;;;-149.78;100.00;50579.00;4752570;30;20052;-63
2020/12/01 03:54:04;;;;;;;3.45;0.45;;;;;;;-149.78;100.00;50553.59;4752608;30;20051;-63
2020/12/01 03:56:30;;;;;;;2.92;0.63;;;;;;;-149.78;100.00;50541.84;4752495;30;20068;-63
2020/12/01 03:58:55;;;;;;;2.28;0.63;;;;;;;-149.78;100.00;50530.13;4756053;30;20071;-63
2020/12/01 04:01:21;;;;;;;4.40;0.60;;;;;;;-149.78;100.00;50557.50;4755915;30;20051;-63
2020/12/01 04:03:46;;;;;;;4.97;1.02;;;;;;;-149.78;100.00;50526.22;4755870;30;20113;-63
2020/12/01 04:06:12;;;;;;;6.95;0.98;;;;;;;-149.78;100.00;50549.69;4755865;30;20440;-63
2020/12/01 04:08:38;;;;;;;6.60;0.70;;;;;;;-149.78;100.00;50530.13;4755682;30;20047;-63
2020/12/01 04:11:04;;;;;;;3.08;0.68;;;;;;;-149.78;100.00;50565.31;4755640;30;20036;-63
2020/12/01 04:13:31;;;;;;;2.35;0.80;;;;;;;-149.78;100.00;50553.59;4755978;30;20064;-63
2020/12/01 04:15:56;;;;;;;3.35;0.55;;;;;;;-149.78;100.00;50545.75;4747590;30;20132;-63
2020/12/01 04:18:22;;;;;;;5.95;0.60;;;;;;;-149.78;100.00;50549.69;4755548;30;20129;-63
2020/12/01 04:20:48;;;;;;;3.13;0.80;;;;;;;-149.78;100.00;50541.84;4755497;30;20398;-63
2020/12/01 04:23:14;;;;;;;1.63;0.70;;;;;;;-149.78;100.00;50522.28;4755555;30;20032;-63
2020/12/01 04:25:39;;;;;;;1.30;0.65;;;;;;;-149.78;100.00;50555.53;4754433;30;20056;-63
2020/12/01 04:28:05;;;;;;;2.25;0.70;;;;;;;-149.78;100.00;50584.88;4754485;30;20032;-63
2020/12/01 04:30:31;;;;;;;3.92;1.05;;;;;;;-149.78;100.00;50549.69;4755400;30;20103;-63
2020/12/01 04:32:57;;;;;;;7.13;0.70;;;;;;;-149.78;100.00;50545.75;4739413;30;20502;-63
2020/12/01 04:35:25;;;;;;;3.88;0.80;;;;;;;-149.78;100.00;50526.22;4755650;30;20044;-63
2020/12/01 04:37:52;;;;;;;4.15;0.73;;;;;;;-149.78;100.00;50573.16;4755167;30;20398;-63
2020/12/01 04:40:25;;;;;;;2.53;0.60;;;;;;;-149.78;100.00;50530.13;4755249;30;20055;-63
2020/12/01 04:42:55;;;;;;;1.48;0.60;;;;;;;-149.78;100.00;50569.22;4755162;30;20497;-63
2020/12/01 04:45:21;;;;;;;2.13;0.63;;;;;;;-149.78;100.00;50563.38;4755065;30;20055;-63
2020/12/01 04:47:55;;;;;;;1.05;0.63;;;;;;;-149.78;100.00;50535.97;4755023;30;20044;-63
2020/12/01 04:50:34;;;;;;;4.95;0.70;;;;;;;-149.78;100.00;50530.13;4755021;30;20504;-63
2020/12/01 04:53:44;;;;;;;5.13;1.02;;;;;;;-149.78;100.00;50557.50;4753691;30;20425;-63
2020/12/01 04:56:28;;;;;;;2.13;0.47;;;;;;;-149.78;100.00;50530.13;4755010;30;20047;-63
2020/12/01 04:59:07;;;;;;;4.10;0.75;;;;;;;-149.78;100.00;50539.91;4755073;30;20462;-63
2020/12/01 05:02:00;;;;;;;1.92;0.60;;;;;;;-149.78;100.00;50563.38;4754824;30;20044;-63
2020/12/01 05:04:33;;;;;;;2.15;0.60;;;;;;;-149.78;100.00;50559.47;4754973;30;20040;-63
2020/12/01 05:07:18;;;;;;;2.50;0.80;;;;;;;-149.78;100.00;50549.69;4754877;30;20044;-63
2020/12/01 05:10:09;;;;;;;2.08;0.50;;;;;;;-149.78;100.00;50541.84;4754005;30;20051;-63
2020/12/01 05:12:39;;;;;;;4.90;1.25;;;;;;;-149.78;100.00;50575.09;4754722;30;20038;-63
2020/12/01 05:15:29;;;;;;;3.72;1.02;;;;;;;-149.78;100.00;50580.97;4754622;30;20036;-63
2020/12/01 05:18:22;;;;;;;1.65;0.40;;;;;;;-149.78;100.00;50541.84;4738906;30;20040;-63
2020/12/01 05:20:57;;;;;;;1.20;0.60;;;;;;;-149.78;100.00;50584.88;4754437;30;20036;-63
2020/12/01 05:23:41;;;;;;;0.88;0.80;;;;;;;-149.78;100.00;50565.31;4754682;30;20052;-63
2020/12/01 05:26:10;;;;;;;1.73;0.60;;;;;;;-149.78;100.00;50534.03;4732968;30;20124;-63
2020/12/01 05:28:47;;;;;;;2.28;0.65;;;;;;;-149.78;100.00;50539.91;4754282;30;20043;-63
2020/12/01 05:31:16;;;;;;;3.63;0.50;;;;;;;-149.78;100.00;50555.53;4754388;30;20040;-63
2020/12/01 05:33:41;;;;;;;2.33;0.50;;;;;;;-149.78;100.00;50557.50;4754307;30;20066;-63
2020/12/01 05:36:20;;;;;;;4.00;0.60;;;;;;;-149.78;100.00;50580.97;4754418;30;20044;-63
2020/12/01 05:39:11;;;;;;;6.60;0.77;;;;;;;-149.78;100.00;50573.16;4754431;30;20461;-63
2020/12/01 05:41:37;;;;;;;4.10;0.90;;;;;;;-149.78;100.00;50549.69;4754175;30;20047;-63
2020/12/01 05:44:21;;;;;;;3.10;0.80;;;;;;;-149.78;100.00;50557.50;4754138;30;20044;-63
2020/12/01 05:46:58;;;;;;;2.42;0.60;;;;;;;-149.78;100.00;50557.50;4754221;30;20171;-63
2020/12/01 05:49:40;;;;;;;3.90;0.82;;;;;;;-149.78;100.00;50555.53;4754042;30;20402;-63
2020/12/01 05:52:16;;;;;;;1.87;0.50;;;;;;;-149.78;100.00;50565.31;4754288;30;20097;-63
2020/12/01 05:54:47;;;;;;;2.38;0.30;;;;;;;-149.78;100.00;50553.59;4754166;30;20272;-65
2020/12/01 05:57:26;;;;;;;3.03;0.80;;;;;;;-149.78;100.00;50555.53;4754046;30;20093;-63
2020/12/01 06:00:00;;;;;;;6.78;1.00;;;;;;;-149.78;100.00;50579.00;4753783;30;20055;-63
2020/12/01 06:02:44;;;;;;;3.63;0.63;;;;;;;-149.78;100.00;50575.09;4753727;30;20071;-63
2020/12/01 06:05:16;;;;;;;4.18;0.47;;;;;;;-149.78;100.00;50545.75;4753995;30;20058;-63
2020/12/01 06:07:47;;;;;;;8.02;1.13;;;;;;;-149.78;100.00;50561.41;4731047;30;20037;-63
2020/12/01 06:10:16;;;;;;;4.93;0.73;;;;;;;-149.78;100.00;50565.31;4750532;30;20039;-63
2020/12/01 06:13:04;;;;;;;0.30;0.30;;;;;;;-149.78;100.00;50565.31;4747706;30;20080;-63
2020/12/01 06:15:32;;;;;;;3.58;1.02;;;;;;;-149.78;100.00;50549.69;4736300;30;20099;-63
2020/12/01 06:18:05;;;;;;;1.92;0.50;;;;;;;-149.78;100.00;50539.91;4746974;30;20049;-63
2020/12/01 06:20:36;;;;;;;1.55;0.50;;;;;;;-149.78;100.00;50604.44;4749157;30;20084;-63
2020/12/01 06:23:24;;;;;;;2.22;0.63;;;;;;;-149.78;100.00;50549.69;4746403;30;20032;-63
2020/12/01 06:26:27;;;;;;;2.25;0.55;;;;;;;-149.78;100.00;50543.81;4751010;30;20040;-63
2020/12/01 06:29:26;;;;;;;2.55;0.47;;;;;;;-149.78;100.00;50565.31;4750317;30;20040;-63
2020/12/01 06:32:30;;;;;;;2.08;0.85;;;;;;;-149.78;100.00;50543.81;4751852;30;20035;-63
2020/12/01 06:35:14;;;;;;;2.58;0.60;;;;;;;-149.78;100.00;50553.59;4729312;30;20052;-63
2020/12/01 06:38:01;;;;;;;1.90;0.70;;;;;;;-149.78;100.00;50551.63;4735809;30;20045;-63
2020/12/01 06:40:36;;;;;;;1.55;0.60;;;;;;;-149.78;100.00;50584.88;4733390;30;20103;-63
2020/12/01 06:43:25;;;;;;;3.33;0.70;;;;;;;-149.78;100.00;50561.41;4739535;30;20051;-64
2020/12/01 06:45:55;;;;;;;1.80;0.80;;;;;;;-149.78;100.00;50594.66;4744682;30;20520;-63
2020/12/01 06:48:38;;;;;;;0.77;0.50;;;;;;;-149.78;100.00;50526.22;4750535;30;20040;-63
2020/12/01 06:51:09;;;;;;;2.65;0.63;;;;;;;-149.78;100.00;50563.38;4751064;30;20032;-63
2020/12/01 06:53:38;;;;;;;1.17;0.50;;;;;;;-149.78;100.00;50592.72;4736218;30;20040;-63
2020/12/01 06:56:06;;;;;;;1.33;0.50;;;;;;;-149.78;100.00;50535.97;4746188;30;20118;-63
2020/12/01 06:58:39;;;;;;;0.88;0.70;;;;;;;-149.78;100.00;50577.06;4751679;30;20478;-63
2020/12/01 07:01:22;;;;;;;1.02;0.50;;;;;;;-149.78;100.00;50577.06;4747221;30;20080;-63
2020/12/01 07:04:08;;;;;;;3.53;0.50;;;;;;;-149.78;100.00;50553.59;4751460;30;20078;-63
2020/12/01 07:06:44;;;;;;;3.70;0.95;;;;;;;-149.78;100.00;50535.97;4742734;30;20398;-63
2020/12/01 07:09:18;;;;;;;1.90;0.68;;;;;;;-149.78;100.00;50588.78;4751787;30;20205;-62
2020/12/01 07:12:15;;;;;;;1.15;0.50;;;;;;;-149.78;100.00;50575.09;4751833;30;20101;-63
2020/12/01 07:14:57;;;;;;;0.73;0.43;;;;;;;-149.78;100.00;50537.94;4752430;30;20040;-65
2020/12/01 07:17:28;;;;;;;1.55;0.65;;;;;;;-149.78;100.00;50579.00;4738502;30;20068;-63
2020/12/01 07:20:00;;;;;;;3.92;0.57;;;;;;;-149.78;100.00;50561.41;4742102;30;20045;-63
2020/12/01 07:23:07;;;;;;;2.33;0.70;;;;;;;-149.78;100.00;50553.59;4748020;30;20048;-62
2020/12/01 07:25:42;;;;;;;0.68;0.38;;;;;;;-149.78;100.00;50534.03;4712006;30;20033;-62
2020/12/01 07:28:19;;;;;;;2.20;0.68;;;;;;;-149.78;100.00;50553.59;4744549;30;20406;-63
2020/12/01 07:30:50;;;;;;;2.03;0.70;;;;;;;-149.78;100.00;50575.09;4748987;30;20056;-64
2020/12/01 07:33:21;;;;;;;3.47;0.80;;;;;;;-149.78;100.00;50580.97;4749883;30;20550;-64
2020/12/01 07:35:51;;;;;;;2.70;0.77;;;;;;;-149.78;100.00;50551.63;4715606;30;20391;-64
2020/12/01 07:38:42;;;;;;;4.90;0.73;;;;;;;-149.78;100.00;50537.94;4742846;30;20097;-64
2020/12/01 07:41:27;;;;;;;1.90;0.52;;;;;;;-149.78;100.00;50551.63;4737723;30;20036;-64
2020/12/01 07:44:05;;;;;;;1.65;0.70;;;;;;;-149.78;100.00;50573.16;4732145;30;20115;-65
2020/12/01 07:46:40;;;;;;;1.90;0.60;;;;;;;-149.78;100.00;50580.97;4735851;30;20397;-64
2020/12/01 07:49:09;;;;;;;3.15;1.33;;;;;;;-149.78;100.00;50580.97;4746394;30;20044;-65
2020/12/01 07:51:35;;;;;;;1.15;0.50;;;;;;;-149.78;100.00;50557.50;4732907;30;20060;-66
2020/12/01 07:54:06;;;;;;;2.05;0.65;;;;;;;-149.78;100.00;50537.94;4734073;30;20539;-69
2020/12/01 07:56:32;;;;;;;5.20;0.68;;;;;;;-149.78;100.00;50580.97;4728053;30;20041;-61
2020/12/01 07:59:00;;;;;;;3.53;0.85;;;;;;;-149.78;100.00;50604.44;4734443;30;20044;-67
2020/12/01 08:01:26;;;;;;;5.18;1.20;;;;;;;-149.78;100.00;50537.94;4734557;30;20115;-66
2020/12/01 08:04:03;;;;;;;1.77;0.77;;;;;;;-149.78;100.00;50537.94;4734542;30;20147;-64
2020/12/01 08:06:28;;;;;;;4.03;0.95;;;;;;;-149.78;100.00;50580.97;4745933;30;20044;-65
2020/12/01 08:08:54;;;;;;;1.85;1.02;;;;;;;-149.78;100.00;50557.50;4750577;30;20044;-67
2020/12/01 08:11:22;;;;;;;3.25;0.95;;;;;;;-149.78;100.00;50604.44;4747787;30;20032;-66
2020/12/01 08:13:54;;;;;;;2.80;0.80;;;;;;;-149.78;100.00;50551.63;4749939;30;20036;-67
2020/12/01 08:16:22;;;;;;;1.70;0.97;;;;;;;-149.78;100.00;50565.31;4745818;30;20032;-66
2020/12/01 08:18:52;;;;;;;5.65;1.08;;;;;;;-149.78;100.00;50561.41;4733996;30;20034;-66
2020/12/01 08:21:39;;;;;;;2.58;1.05;;;;;;;-149.78;100.00;50577.06;4746488;30;20398;-66
2020/12/01 08:24:18;;;;;;;4.70;1.17;;;;;;;-149.78;100.00;50526.22;4745660;30;20048;-66
2020/12/01 08:26:46;;;;;;;3.03;1.38;;;;;;;-149.78;100.00;50537.94;4747110;30;20036;-66
2020/12/01 08:29:24;;;;;;;6.03;1.42;;;;;;;-149.78;100.00;50518.38;4746108;30;20053;-65
2020/12/01 08:32:03;;;;;;;1.88;1.08;;;;;;;-149.78;100.00;50559.47;4744857;30;20028;-66
2020/12/01 08:34:48;;;;;;;2.45;1.23;;;;;;;-149.78;100.00;50565.31;4736464;30;20047;-65
2020/12/01 08:37:27;;;;;;;1.15;0.90;;;;;;;-149.78;100.00;50555.53;4738753;30;20040;-65
2020/12/01 08:39:58;;;;;;;2.08;0.90;;;;;;;-149.78;100.00;50537.94;4747754;30;20047;-64
2020/12/01 08:42:23;;;;;;;4.00;1.20;;;;;;;-149.78;100.00;50526.22;4741120;30;20127;-64
2020/12/01 08:45:13;;;;;;;1.80;0.85;;;;;;;-149.78;100.00;50498.81;4745169;30;20119;-66
2020/12/01 08:47:44;;;;;;;4.57;1.00;;;;;;;-149.78;100.00;50537.94;4745401;30;20132;-66
2020/12/01 08:50:22;;;;;;;4.40;0.90;;;;;;;-149.78;100.00;50569.22;4744780;30;20063;-66
2020/12/01 08:52:48;;;;;;;3.40;0.82;;;;;;;-149.78;100.00;50541.84;4750102;30;20098;-66
2020/12/01 08:55:28;;;;;;;3.70;0.73;;;;;;;-149.78;100.00;50537.94;4745815;30;20047;-66
2020/12/01 08:58:22;;;;;;;9.82;1.23;;;;;;;-149.78;100.00;50549.69;4751282;30;20047;-66
2020/12/01 09:01:12;;;;;;;3.47;0.80;;;;;;;-149.78;100.00;50557.50;4704900;30;20064;-66
2020/12/01 09:03:39;;;;;;;2.80;0.90;;;;;;;-149.78;100.00;50510.56;4700964;30;20508;-66
2020/12/01 09:06:21;;;;;;;3.08;0.98;;;;;;;-149.78;100.00;50547.72;4697796;30;20419;-66
2020/12/01 09:09:00;;;;;;;1.65;0.70;;;;;;;-149.78;100.00;50549.69;4697796;30;20100;-67
2020/12/01 09:17:46;;;;;;;8.48;1.00;;;;;;;-149.78;100.00;50549.69;4716306;30;20073;-67
2020/12/01 09:23:18;;;;;;;4.90;1.60;;;;;;;-149.78;100.00;50563.38;4682546;30;20069;-67
2020/12/01 09:25:46;;;;;;;5.72;1.40;;;;;;;-149.78;100.00;50561.41;4692623;30;20416;-67
2020/12/01 09:28:16;;;;;;;3.00;1.27;;;;;;;-149.78;100.00;50545.75;4690025;30;20038;-67
2020/12/01 09:30:43;;;;;;;7.10;1.42;;;;;;;-149.78;100.00;50534.03;4690386;30;20053;-67
2020/12/01 09:33:13;;;;;;;7.63;1.60;;;;;;;-149.78;100.00;50545.75;4695099;30;20064;-67
2020/12/01 09:35:38;;;;;;;4.28;1.42;;;;;;;-149.78;100.00;50600.53;4688328;30;20041;-68
2020/12/01 09:38:05;;;;;;;6.00;1.05;;;;;;;-149.78;100.00;50584.88;4708112;30;20074;-68
2020/12/01 09:40:32;;;;;;;4.40;1.17;;;;;;;-149.78;100.00;50518.38;4748866;30;20043;-68
2020/12/01 09:43:06;;;;;;;10.23;1.25;;;;;;;-149.78;100.00;50534.03;4747195;30;20053;-68
2020/12/01 09:45:33;;;;;;;6.43;0.95;;;;;;;-149.78;100.00;50534.03;4726904;30;20037;-68
2020/12/01 09:48:04;;;;;;;4.57;1.10;;;;;;;-149.78;100.00;50522.28;4723530;30;20048;-68
2020/12/01 09:50:33;;;;;;;6.28;1.08;;;;;;;-149.78;100.00;50526.22;4736188;30;20047;-68
2020/12/01 09:53:16;;;;;;;2.50;0.90;;;;;;;-149.78;100.00;50520.34;4736017;30;20028;-68
2020/12/01 10:11:58;;;;;;;3.80;1.17;;;;;;;-149.78;100.00;50522.28;4735779;30;20044;-67
2020/12/01 10:35:14;;;;;;;3.78;0.65;;;;;;;-149.78;100.00;50479.28;4735798;30;20082;-67
2020/12/01 10:37:39;;;;;;;3.10;0.80;;;;;;;-149.78;100.00;50489.03;4735485;30;20076;-67
2020/12/01 10:40:05;;;;;;;2.25;0.93;;;;;;;-149.78;100.00;50510.56;4719746;30;20068;-67
2020/12/01 10:42:31;;;;;;;3.83;0.80;;;;;;;-149.78;100.00;50506.66;4745231;30;20516;-67
2020/12/01 10:44:56;;;;;;;4.38;0.82;;;;;;;-149.78;100.00;50526.22;4747181;30;20122;-67
2020/12/01 10:47:22;;;;;;;2.40;0.80;;;;;;;-149.78;100.00;50537.94;4748885;30;20040;-67
2020/12/01 10:49:48;;;;;;;3.63;0.80;;;;;;;-149.78;100.00;50534.03;4748311;30;20567;-67
2020/12/01 10:52:14;;;;;;;1.90;1.00;;;;;;;-149.78;100.00;50528.16;4746879;30;20033;-67
2020/12/01 10:54:39;;;;;;;3.70;0.80;;;;;;;-149.78;100.00;50504.69;4746406;30;20474;-67
2020/12/01 10:57:05;;;;;;;2.80;1.10;;;;;;;-149.78;100.00;50510.56;4749555;30;20406;-67
2020/12/01 10:59:31;;;;;;;7.15;0.90;;;;;;;-149.78;100.00;50526.22;4748746;30;20120;-67
2020/12/01 11:01:56;;;;;;;6.03;1.08;;;;;;;-149.78;100.00;50518.38;4745249;30;20041;-65
2020/12/01 11:04:22;;;;;;;3.08;1.02;;;;;;;-149.78;100.00;50498.81;4742293;30;20064;-65
2020/12/01 11:06:48;;;;;;;2.55;0.95;;;;;;;-149.78;100.00;50528.16;4746820;30;20066;-65
2020/12/01 11:09:15;;;;;;;2.60;1.10;;;;;;;-149.78;100.00;50500.78;4743235;30;20037;-67
2020/12/01 11:11:41;;;;;;;4.75;0.93;;;;;;;-149.78;100.00;50506.66;4743830;30;20060;-67
2020/12/01 11:14:07;;;;;;;1.27;0.88;;;;;;;-149.78;100.00;50491.00;4747425;30;20075;-67
2020/12/01 11:16:33;;;;;;;5.03;1.10;;;;;;;-149.78;100.00;50520.34;4735306;30;20051;-67
2020/12/01 11:18:59;;;;;;;4.57;1.20;;;;;;;-149.78;100.00;50547.72;4747436;30;20048;-67
2020/12/01 11:21:25;;;;;;;6.28;1.15;;;;;;;-149.78;100.00;50514.47;4749577;30;20040;-70
2020/12/01 11:23:51;;;;;;;2.22;0.90;;;;;;;-149.78;100.00;50510.56;4744290;30;20040;-67
2020/12/01 11:26:20;;;;;;;2.42;0.63;;;;;;;-149.78;100.00;50532.06;4752817;30;20096;-67
2020/12/01 11:28:48;;;;;;;1.77;0.70;;;;;;;-149.78;100.00;50502.75;4751569;30;20040;-67
2020/12/01 11:31:14;;;;;;;2.08;0.80;;;;;;;-149.78;100.00;50504.69;4752768;30;20048;-67
2020/12/01 11:33:40;;;;;;;3.40;1.00;;;;;;;-149.78;100.00;50530.13;4750756;30;20385;-67
2020/12/01 11:36:05;;;;;;;4.85;0.70;;;;;;;-149.78;100.00;50537.94;4748417;30;20032;-67
2020/12/01 11:38:32;;;;;;;3.35;0.60;;;;;;;-149.78;100.00;50475.34;4733863;30;20044;-67
2020/12/01 11:40:58;;;;;;;3.75;1.02;;;;;;;-149.78;100.00;50487.09;4734349;30;20044;-67
2020/12/01 11:43:23;;;;;;;3.42;0.63;;;;;;;-149.78;100.00;50506.66;4734397;30;20414;-67
2020/12/01 11:45:49;;;;;;;2.50;1.08;;;;;;;-149.78;100.00;50475.34;4734305;30;20075;-67
2020/12/01 11:48:15;;;;;;;1.30;0.80;;;;;;;-149.78;100.00;50545.75;4734255;30;20040;-68
2020/12/01 11:50:40;;;;;;;2.60;0.70;;;;;;;-149.78;100.00;50494.91;4734627;30;20439;-67
2020/12/01 11:53:06;;;;;;;3.63;0.98;;;;;;;-149.78;100.00;50512.50;4734791;30;20044;-67
2020/12/01 11:55:31;;;;;;;4.30;0.77;;;;;;;-149.78;100.00;50483.19;4734820;30;20045;-67
2020/12/01 11:57:57;;;;;;;2.30;0.60;;;;;;;-149.78;100.00;50502.75;4734442;30;20044;-68
2020/12/01 12:00:25;;;;;;;2.42;0.50;;;;;;;-149.78;100.00;50504.69;4750111;30;20040;-67
2020/12/01 12:02:51;;;;;;;2.88;1.15;;;;;;;-149.78;100.00;50500.78;4743977;30;20406;-67
2020/12/01 12:05:17;;;;;;;3.03;1.02;;;;;;;-149.78;100.00;50494.91;4745347;30;20041;-67
2020/12/01 12:07:43;;;;;;;1.88;1.08;;;;;;;-149.78;100.00;50510.56;4734990;30;20394;-68
2020/12/01 12:10:09;;;;;;;7.18;0.82;;;;;;;-149.78;100.00;50479.28;4734597;30;20490;-68
2020/12/01 12:12:34;;;;;;;2.35;0.90;;;;;;;-149.78;100.00;50500.78;4736435;30;20128;-67
2020/12/01 12:15:00;;;;;;;3.97;1.00;;;;;;;-149.78;100.00;50532.06;4749772;30;20052;-67